Time;durP1;ratioP1;P1;durP2;ratioP2;P2;SDS_P1;SDS_P2;PMS_P1;PMS_P2;Temp;Humidity;BMP_temperature;BMP_pressure;BME280_temperature;BME280_humidity;BME280_pressure;Samples;Min_cycle;Max_cycle;Signal;HPM_P1;HPM_P2
2021/04/25 00:00:12;;;;;;;11.75;6.13;;;17.10;35.10;;;;;;5070318;28;20036;-69
2021/04/25 00:02:39;;;;;;;13.65;6.07;;;17.10;35.10;;;;;;5068652;28;20017;-69
2021/04/25 00:05:06;;;;;;;12.82;6.45;;;17.10;35.10;;;;;;5070245;28;20050;-69
2021/04/25 00:07:32;;;;;;;13.45;7.22;;;17.00;35.10;;;;;;5069671;28;20024;-69
2021/04/25 00:09:58;;;;;;;15.85;6.88;;;17.00;35.10;;;;;;5070480;28;20024;-69
2021/04/25 00:12:24;;;;;;;11.82;5.50;;;16.90;35.20;;;;;;5073084;28;20031;-69
2021/04/25 00:14:50;;;;;;;12.05;6.47;;;16.90;35.20;;;;;;5071322;28;20039;-69
2021/04/25 00:17:17;;;;;;;12.85;6.50;;;16.90;35.30;;;;;;5079684;28;20021;-69
2021/04/25 00:19:43;;;;;;;12.40;6.50;;;16.80;35.30;;;;;;5074033;28;20481;-69
2021/04/25 00:22:09;;;;;;;11.25;5.50;;;16.80;35.10;;;;;;5073593;28;20021;-69
2021/04/25 00:24:35;;;;;;;11.68;6.60;;;16.70;35.20;;;;;;5073442;28;20021;-69
2021/04/25 00:27:01;;;;;;;15.10;7.70;;;16.70;35.40;;;;;;5073872;28;20055;-69
2021/04/25 00:29:28;;;;;;;11.38;5.47;;;16.70;35.30;;;;;;5071885;28;20028;-69
2021/04/25 00:31:54;;;;;;;10.52;4.85;;;16.70;35.30;;;;;;5073907;28;20033;-69
2021/04/25 00:34:20;;;;;;;13.68;6.65;;;16.70;35.40;;;;;;5072137;28;20408;-69
2021/04/25 00:36:47;;;;;;;11.07;5.80;;;16.70;35.50;;;;;;5073143;28;20484;-69
2021/04/25 00:39:13;;;;;;;10.85;5.63;;;16.60;35.40;;;;;;5061920;28;20041;-69
2021/04/25 00:41:39;;;;;;;11.00;4.88;;;16.60;35.40;;;;;;5072119;28;20020;-69
2021/04/25 00:44:09;;;;;;;11.30;5.55;;;16.60;35.40;;;;;;5073385;28;20032;-69
2021/04/25 00:46:37;;;;;;;10.38;5.53;;;16.60;35.60;;;;;;5072350;28;20016;-69
2021/04/25 00:49:04;;;;;;;11.25;5.03;;;16.50;35.60;;;;;;5073343;28;20024;-69
2021/04/25 00:51:31;;;;;;;12.77;6.10;;;16.50;35.70;;;;;;5072936;28;20024;-69
2021/04/25 00:53:57;;;;;;;12.50;6.88;;;16.50;35.70;;;;;;5062325;28;20488;-69
2021/04/25 00:56:24;;;;;;;10.90;5.80;;;16.50;35.80;;;;;;5071506;28;20031;-69
2021/04/25 00:58:50;;;;;;;13.20;6.68;;;16.40;35.90;;;;;;5069155;28;20040;-69
2021/04/25 01:01:17;;;;;;;13.02;5.60;;;16.40;35.90;;;;;;5073082;28;20039;-69
2021/04/25 01:03:43;;;;;;;9.38;4.95;;;16.40;36.00;;;;;;5072730;28;20127;-69
2021/04/25 01:06:10;;;;;;;9.73;4.70;;;16.40;36.00;;;;;;5072747;28;20380;-69
2021/04/25 01:08:36;;;;;;;10.35;5.32;;;16.30;36.00;;;;;;5073108;28;20028;-69
2021/04/25 01:11:03;;;;;;;10.73;5.60;;;16.30;36.10;;;;;;5072897;28;20395;-69
2021/04/25 01:13:29;;;;;;;11.98;5.65;;;16.30;36.30;;;;;;5072400;28;20495;-69
2021/04/25 01:15:55;;;;;;;10.15;5.38;;;16.20;36.30;;;;;;5072288;28;20021;-69
2021/04/25 01:18:22;;;;;;;8.85;4.70;;;16.20;36.30;;;;;;5072877;28;20032;-69
2021/04/25 01:20:48;;;;;;;10.68;5.10;;;16.20;36.40;;;;;;5072500;28;20032;-69
2021/04/25 01:23:14;;;;;;;11.63;5.93;;;16.20;36.40;;;;;;5072736;28;20043;-69
2021/04/25 01:25:40;;;;;;;10.63;5.45;;;16.20;36.50;;;;;;5070870;28;20589;-69
2021/04/25 01:28:06;;;;;;;9.38;4.40;;;16.20;36.50;;;;;;5072446;28;20096;-69
2021/04/25 01:30:33;;;;;;;9.52;4.75;;;16.20;36.50;;;;;;5072406;28;20041;-69
2021/04/25 01:32:59;;;;;;;9.48;4.53;;;16.20;36.70;;;;;;5079459;28;20400;-69
2021/04/25 01:35:26;;;;;;;10.10;4.80;;;16.10;36.60;;;;;;5072095;28;20029;-68
2021/04/25 01:37:54;;;;;;;9.00;4.38;;;16.10;36.80;;;;;;5071836;28;20032;-69
2021/04/25 01:40:22;;;;;;;10.10;4.88;;;16.10;36.70;;;;;;5061030;28;20028;-69
2021/04/25 01:42:48;;;;;;;10.43;5.03;;;16.00;36.90;;;;;;5071977;28;20064;-69
2021/04/25 01:45:18;;;;;;;11.15;5.68;;;16.00;37.00;;;;;;5072020;28;20507;-69
2021/04/25 01:47:53;;;;;;;9.13;4.23;;;16.00;37.10;;;;;;5071735;28;20028;-69
2021/04/25 01:50:22;;;;;;;10.48;4.93;;;16.00;37.00;;;;;;5081692;28;20434;-69
2021/04/25 01:52:49;;;;;;;11.80;5.75;;;16.00;37.10;;;;;;5076366;28;20111;-69
2021/04/25 01:55:16;;;;;;;11.48;5.65;;;15.90;37.20;;;;;;5072509;28;20504;-69
2021/04/25 01:57:43;;;;;;;9.05;4.35;;;15.90;37.20;;;;;;5071633;28;20024;-69
2021/04/25 02:00:16;;;;;;;9.43;4.18;;;15.90;37.20;;;;;;5074428;28;20020;-69
2021/04/25 02:02:44;;;;;;;8.90;4.72;;;15.90;37.20;;;;;;5080769;28;20120;-69
2021/04/25 02:05:11;;;;;;;10.80;5.05;;;15.80;37.30;;;;;;5071855;28;20028;-69
2021/04/25 02:07:37;;;;;;;9.70;3.90;;;15.90;37.40;;;;;;5071518;28;20451;-69
2021/04/25 02:10:06;;;;;;;8.35;3.78;;;15.80;37.40;;;;;;5071479;28;20029;-69
2021/04/25 02:12:33;;;;;;;8.77;3.80;;;15.80;37.50;;;;;;5071532;28;20021;-69
2021/04/25 02:14:59;;;;;;;8.98;4.03;;;15.80;37.50;;;;;;5071617;28;20025;-69
2021/04/25 02:17:25;;;;;;;9.57;4.20;;;15.80;37.50;;;;;;5071137;28;20020;-69
2021/04/25 02:19:52;;;;;;;10.13;4.22;;;15.80;37.70;;;;;;5075747;28;20027;-69
2021/04/25 02:22:18;;;;;;;10.05;4.38;;;15.70;37.70;;;;;;5074449;28;20056;-69
2021/04/25 02:24:44;;;;;;;9.27;4.28;;;15.70;37.90;;;;;;5071297;28;20120;-69
2021/04/25 02:27:10;;;;;;;10.95;4.10;;;15.70;38.20;;;;;;5071313;28;20071;-69
2021/04/25 02:29:36;;;;;;;9.00;3.97;;;15.60;38.20;;;;;;5071367;28;20013;-69
2021/04/25 02:32:02;;;;;;;7.90;3.85;;;15.60;38.20;;;;;;5070932;28;20396;-69
2021/04/25 02:34:29;;;;;;;8.32;3.88;;;15.50;38.20;;;;;;5071286;28;20492;-69
2021/04/25 02:36:55;;;;;;;9.27;4.18;;;15.50;38.30;;;;;;5070961;28;20489;-69
2021/04/25 02:39:21;;;;;;;9.35;4.22;;;15.50;38.50;;;;;;5061730;28;20429;-68
2021/04/25 02:41:47;;;;;;;10.13;5.03;;;15.50;38.60;;;;;;5073052;28;20035;-69
2021/04/25 02:44:14;;;;;;;8.57;4.20;;;15.40;38.70;;;;;;5069660;28;20374;-69
2021/04/25 02:46:40;;;;;;;8.95;3.95;;;15.40;38.80;;;;;;5070712;28;20024;-69
2021/04/25 02:49:06;;;;;;;9.23;4.47;;;15.40;38.90;;;;;;5071464;28;20028;-69
2021/04/25 02:51:32;;;;;;;9.70;4.88;;;15.30;38.90;;;;;;5070823;28;20027;-69
2021/04/25 02:53:58;;;;;;;8.32;4.35;;;15.30;39.10;;;;;;5071168;28;20400;-69
2021/04/25 02:56:24;;;;;;;9.60;4.50;;;15.30;38.90;;;;;;5070844;28;20024;-69
2021/04/25 02:58:50;;;;;;;10.25;5.13;;;15.30;39.20;;;;;;5070741;28;20024;-69
2021/04/25 03:01:16;;;;;;;10.45;5.10;;;15.30;39.20;;;;;;5070576;28;20503;-69
2021/04/25 03:03:43;;;;;;;10.05;5.25;;;15.30;39.20;;;;;;5084200;28;20045;-69
2021/04/25 03:06:09;;;;;;;8.63;4.78;;;15.30;39.20;;;;;;5070985;28;20043;-69
2021/04/25 03:08:35;;;;;;;13.10;5.43;;;15.20;39.20;;;;;;5070833;28;20021;-69
2021/04/25 03:11:01;;;;;;;11.40;5.32;;;15.20;39.40;;;;;;5071269;28;20033;-69
2021/04/25 03:13:27;;;;;;;11.20;5.13;;;15.10;39.50;;;;;;5064372;28;20033;-69
2021/04/25 03:15:54;;;;;;;11.68;5.22;;;15.10;39.50;;;;;;5070555;28;20488;-69
2021/04/25 03:18:20;;;;;;;12.32;5.90;;;15.10;39.50;;;;;;5070928;28;20115;-69
2021/04/25 03:20:46;;;;;;;14.07;6.00;;;15.10;39.60;;;;;;5070539;28;20025;-69
2021/04/25 03:23:12;;;;;;;10.25;5.28;;;15.10;39.60;;;;;;5069814;28;20035;-69
2021/04/25 03:25:38;;;;;;;9.93;4.95;;;15.00;39.60;;;;;;5070833;28;20043;-69
2021/04/25 03:28:05;;;;;;;10.45;5.28;;;15.00;39.70;;;;;;5070938;28;20017;-69
2021/04/25 03:30:31;;;;;;;9.48;4.70;;;15.00;39.70;;;;;;5069206;28;20472;-69
2021/04/25 03:32:57;;;;;;;10.68;4.65;;;14.90;39.70;;;;;;5080275;28;20016;-68
2021/04/25 03:35:23;;;;;;;8.57;4.38;;;14.90;39.80;;;;;;5069281;28;20040;-69
2021/04/25 03:37:50;;;;;;;9.50;4.60;;;14.90;39.80;;;;;;5070381;28;20024;-68
2021/04/25 03:40:19;;;;;;;8.77;4.63;;;14.80;39.70;;;;;;5061717;28;20047;-69
2021/04/25 03:42:47;;;;;;;9.15;4.35;;;14.80;39.80;;;;;;5070084;28;20104;-69
2021/04/25 03:45:14;;;;;;;10.27;4.50;;;14.80;40.00;;;;;;5069656;28;20041;-69
2021/04/25 03:47:42;;;;;;;8.50;4.47;;;14.80;40.00;;;;;;5072843;28;20031;-69
2021/04/25 03:50:08;;;;;;;8.40;4.05;;;14.70;40.10;;;;;;5074330;28;20020;-69
2021/04/25 03:52:35;;;;;;;9.98;5.22;;;14.80;40.20;;;;;;5073011;28;20511;-69
2021/04/25 03:55:01;;;;;;;11.07;4.97;;;14.70;40.40;;;;;;5081610;28;20025;-69
2021/04/25 03:57:27;;;;;;;8.55;4.30;;;14.70;40.30;;;;;;5074248;28;20025;-69
2021/04/25 03:59:53;;;;;;;9.52;4.50;;;14.70;40.40;;;;;;5073759;28;20017;-69
2021/04/25 04:02:19;;;;;;;9.63;4.43;;;14.60;40.50;;;;;;5074097;28;20028;-69
2021/04/25 04:04:45;;;;;;;8.93;4.60;;;14.60;40.60;;;;;;5074035;28;20044;-69
2021/04/25 04:07:12;;;;;;;8.48;4.13;;;14.60;40.60;;;;;;5074941;28;20033;-69
2021/04/25 04:09:39;;;;;;;12.15;5.50;;;14.50;40.70;;;;;;5083403;28;20027;-69
2021/04/25 04:12:07;;;;;;;10.98;5.10;;;14.50;40.80;;;;;;5073560;28;20096;-69
2021/04/25 04:14:33;;;;;;;12.23;5.75;;;14.50;40.80;;;;;;5072966;28;20020;-69
2021/04/25 04:16:59;;;;;;;9.70;4.93;;;14.40;41.10;;;;;;5078686;28;20040;-69
2021/04/25 04:19:25;;;;;;;9.43;4.72;;;14.40;40.90;;;;;;5072362;28;20386;-69
2021/04/25 04:21:51;;;;;;;11.65;5.18;;;14.40;41.10;;;;;;5073655;28;20036;-69
2021/04/25 04:24:17;;;;;;;10.52;5.40;;;14.40;41.20;;;;;;5072444;28;20027;-69
2021/04/25 04:26:43;;;;;;;10.45;5.53;;;14.40;41.50;;;;;;5073901;28;20025;-69
2021/04/25 04:29:10;;;;;;;11.38;5.47;;;14.30;41.50;;;;;;5073359;28;20051;-69
2021/04/25 04:31:36;;;;;;;13.27;5.43;;;14.30;41.60;;;;;;5073651;28;20017;-69
2021/04/25 04:34:02;;;;;;;10.55;5.07;;;14.30;41.70;;;;;;5073078;28;20020;-68
2021/04/25 04:36:28;;;;;;;11.52;4.93;;;14.20;41.80;;;;;;5073345;28;20029;-68
2021/04/25 04:38:55;;;;;;;9.45;5.03;;;14.20;41.80;;;;;;5062996;28;20040;-69
2021/04/25 04:41:21;;;;;;;9.10;4.55;;;14.20;41.80;;;;;;5072048;28;20064;-69
2021/04/25 04:43:47;;;;;;;8.90;4.72;;;14.10;41.90;;;;;;5072295;28;20033;-69
2021/04/25 04:46:14;;;;;;;10.35;5.28;;;14.10;42.00;;;;;;5073230;28;20411;-69
2021/04/25 04:48:40;;;;;;;10.00;4.80;;;14.10;42.20;;;;;;5071970;28;20511;-69
2021/04/25 04:51:06;;;;;;;9.88;5.07;;;14.00;42.30;;;;;;5074692;28;20115;-69
2021/04/25 04:53:32;;;;;;;11.35;4.80;;;14.00;42.40;;;;;;5073116;28;20414;-69
2021/04/25 04:55:58;;;;;;;10.63;4.47;;;13.90;42.40;;;;;;5072756;28;20426;-68
2021/04/25 04:58:24;;;;;;;11.60;4.80;;;13.90;42.50;;;;;;5077111;28;20027;-69
2021/04/25 05:00:50;;;;;;;10.63;4.85;;;13.90;42.70;;;;;;5080806;28;20035;-68
2021/04/25 05:03:16;;;;;;;9.02;4.55;;;13.90;42.70;;;;;;5072517;28;20488;-69
2021/04/25 05:05:42;;;;;;;9.52;4.90;;;13.90;42.70;;;;;;5073201;28;20036;-69
2021/04/25 05:08:09;;;;;;;10.52;5.20;;;13.90;42.80;;;;;;5071513;28;20035;-69
2021/04/25 05:10:35;;;;;;;8.50;4.45;;;13.90;43.10;;;;;;5071419;28;20404;-68
2021/04/25 05:13:01;;;;;;;9.93;5.57;;;13.90;43.00;;;;;;5069716;28;20024;-69
2021/04/25 05:15:27;;;;;;;9.00;4.70;;;13.80;43.00;;;;;;5069282;28;20036;-68
2021/04/25 05:17:53;;;;;;;11.15;5.53;;;13.80;43.10;;;;;;5075306;28;20400;-69
2021/04/25 05:20:19;;;;;;;9.93;5.20;;;13.80;43.20;;;;;;5072885;28;20025;-69
2021/04/25 05:22:45;;;;;;;10.85;5.03;;;13.80;43.30;;;;;;5072706;28;20031;-68
2021/04/25 05:25:12;;;;;;;9.90;5.10;;;13.80;43.30;;;;;;5072574;28;20032;-69
2021/04/25 05:27:38;;;;;;;10.43;5.43;;;13.80;43.40;;;;;;5072865;28;20024;-69
2021/04/25 05:30:04;;;;;;;10.43;5.13;;;13.80;43.50;;;;;;5073384;28;20060;-67
2021/04/25 05:32:30;;;;;;;10.02;5.03;;;13.80;43.60;;;;;;5072488;28;20024;-69
2021/04/25 05:34:56;;;;;;;13.23;5.10;;;13.80;43.50;;;;;;5070953;28;20036;-68
2021/04/25 05:37:23;;;;;;;11.82;5.18;;;13.80;43.60;;;;;;5072150;28;20139;-68
2021/04/25 05:39:49;;;;;;;10.50;5.10;;;13.80;43.70;;;;;;5063047;28;20040;-68
2021/04/25 05:42:16;;;;;;;9.48;4.70;;;13.70;43.70;;;;;;5071988;28;20092;-68
2021/04/25 05:44:42;;;;;;;10.98;5.38;;;13.70;43.90;;;;;;5070552;28;20024;-69
2021/04/25 05:47:08;;;;;;;11.55;5.60;;;13.70;43.90;;;;;;5083288;28;20085;-69
2021/04/25 05:49:34;;;;;;;10.60;5.18;;;13.70;44.00;;;;;;5073025;28;20024;-69
2021/04/25 05:52:00;;;;;;;10.73;5.20;;;13.70;44.60;;;;;;5071875;28;20122;-69
2021/04/25 05:54:26;;;;;;;10.98;5.38;;;13.70;44.10;;;;;;5072031;28;20119;-69
2021/04/25 05:56:53;;;;;;;9.95;5.07;;;13.70;44.10;;;;;;5071764;28;20032;-69
2021/04/25 05:59:20;;;;;;;8.75;4.60;;;13.70;44.10;;;;;;5071695;28;20035;-69
2021/04/25 06:01:46;;;;;;;10.50;5.20;;;13.80;44.00;;;;;;5057910;28;20027;-69
2021/04/25 06:04:12;;;;;;;11.30;5.95;;;13.80;44.30;;;;;;5083576;28;20105;-69
2021/04/25 06:06:38;;;;;;;11.25;5.35;;;13.80;44.20;;;;;;5071693;28;20043;-69
2021/04/25 06:09:05;;;;;;;11.02;5.20;;;13.80;44.20;;;;;;5081335;28;20021;-68
2021/04/25 06:11:32;;;;;;;11.73;5.53;;;13.80;44.00;;;;;;5071454;28;20052;-68
2021/04/25 06:13:58;;;;;;;10.43;5.20;;;13.80;44.10;;;;;;5065114;28;20035;-68
2021/04/25 06:16:24;;;;;;;9.48;4.95;;;13.80;44.20;;;;;;5071886;28;20480;-69
2021/04/25 06:18:50;;;;;;;11.38;5.65;;;13.80;44.20;;;;;;5071620;28;20025;-69
2021/04/25 06:21:16;;;;;;;10.57;5.47;;;13.90;44.20;;;;;;5071135;28;20104;-69
2021/04/25 06:23:42;;;;;;;11.63;5.05;;;13.90;44.10;;;;;;5072456;28;20032;-69
2021/04/25 06:26:09;;;;;;;10.27;5.40;;;13.90;44.00;;;;;;5077806;28;20020;-69
2021/04/25 06:28:35;;;;;;;11.23;6.18;;;14.00;44.00;;;;;;5078625;28;20017;-69
2021/04/25 06:31:01;;;;;;;13.57;7.22;;;14.10;44.00;;;;;;5071286;28;20020;-69
2021/04/25 06:33:27;;;;;;;12.85;8.05;;;14.10;43.90;;;;;;5074368;28;20024;-69
2021/04/25 06:35:53;;;;;;;12.35;6.97;;;14.20;43.90;;;;;;5071294;28;20023;-68
2021/04/25 06:38:20;;;;;;;13.57;7.85;;;14.30;43.80;;;;;;5067788;28;20493;-69
2021/04/25 06:40:46;;;;;;;11.27;6.07;;;14.30;44.60;;;;;;5066200;28;20028;-68
2021/04/25 06:43:12;;;;;;;12.23;6.57;;;14.30;43.40;;;;;;5075142;28;20028;-68
2021/04/25 06:45:38;;;;;;;15.30;7.70;;;14.40;43.50;;;;;;5071312;28;20025;-69
2021/04/25 06:48:05;;;;;;;12.23;6.22;;;14.40;43.50;;;;;;5075519;28;20020;-69
2021/04/25 06:50:31;;;;;;;12.70;6.15;;;14.50;43.30;;;;;;5070950;28;20047;-69
2021/04/25 06:52:57;;;;;;;13.65;7.40;;;14.70;43.20;;;;;;5077519;28;20462;-69
2021/04/25 06:55:25;;;;;;;13.05;7.65;;;14.70;43.10;;;;;;5071046;28;20021;-69
2021/04/25 06:57:52;;;;;;;12.70;6.97;;;14.90;42.80;;;;;;5078517;28;20034;-69
2021/04/25 07:00:21;;;;;;;13.13;7.13;;;15.00;42.50;;;;;;5070974;28;20104;-69
2021/04/25 07:02:47;;;;;;;11.30;6.07;;;15.10;42.40;;;;;;5079393;28;20032;-69
2021/04/25 07:05:14;;;;;;;14.65;7.07;;;15.40;42.30;;;;;;5072648;28;20044;-68
2021/04/25 07:07:41;;;;;;;11.85;6.47;;;15.60;41.60;;;;;;5071076;28;20495;-68
2021/04/25 07:10:08;;;;;;;15.70;7.30;;;15.80;40.80;;;;;;5074541;28;20025;-68
2021/04/25 07:12:34;;;;;;;14.43;7.40;;;16.00;40.20;;;;;;5070419;28;20024;-69
2021/04/25 07:15:01;;;;;;;13.77;7.30;;;16.20;39.80;;;;;;5070858;28;20031;-69
2021/04/25 07:17:27;;;;;;;13.93;6.65;;;16.40;39.00;;;;;;5068449;28;20032;-69
2021/04/25 07:19:54;;;;;;;12.50;7.55;;;16.60;39.10;;;;;;5070873;28;20415;-69
2021/04/25 07:22:20;;;;;;;12.60;7.15;;;16.90;38.20;;;;;;5075587;28;20369;-69
2021/04/25 07:24:46;;;;;;;13.18;6.80;;;17.10;37.80;;;;;;5073863;28;20032;-69
2021/04/25 07:27:12;;;;;;;13.05;6.95;;;17.50;37.80;;;;;;5074274;28;20511;-68
2021/04/25 07:29:38;;;;;;;12.15;6.78;;;17.80;36.50;;;;;;5073756;28;20044;-68
2021/04/25 07:32:06;;;;;;;11.63;6.05;;;18.10;36.00;;;;;;5073019;28;20021;-70
2021/04/25 07:34:32;;;;;;;10.68;5.68;;;18.40;36.20;;;;;;5073341;28;20047;-70
2021/04/25 07:36:59;;;;;;;15.10;7.30;;;18.70;36.10;;;;;;5073589;28;20063;-72
2021/04/25 07:39:25;;;;;;;11.82;6.00;;;19.10;34.40;;;;;;5073637;28;20028;-71
2021/04/25 07:41:51;;;;;;;9.60;5.47;;;19.30;34.40;;;;;;5073430;28;20028;-73
2021/04/25 07:44:17;;;;;;;11.55;6.07;;;19.60;34.10;;;;;;5070553;28;20043;-71
2021/04/25 07:46:44;;;;;;;12.20;6.00;;;19.80;33.60;;;;;;5074031;28;20032;-71
2021/04/25 07:49:10;;;;;;;10.32;5.40;;;20.00;33.50;;;;;;5070778;28;20029;-71
2021/04/25 07:51:36;;;;;;;12.95;7.38;;;20.20;33.30;;;;;;5074643;28;20039;-71
2021/04/25 07:54:03;;;;;;;12.32;6.47;;;20.50;32.70;;;;;;5069589;28;20099;-71
2021/04/25 07:56:29;;;;;;;10.75;4.80;;;20.80;31.90;;;;;;5070188;28;20048;-72
2021/04/25 07:58:55;;;;;;;11.25;6.40;;;21.20;32.00;;;;;;5073851;28;20028;-71
2021/04/25 08:01:21;;;;;;;8.90;4.93;;;21.50;30.50;;;;;;5071986;28;20016;-71
2021/04/25 08:03:47;;;;;;;9.98;5.75;;;21.70;30.20;;;;;;5072527;28;20047;-70
2021/04/25 08:06:13;;;;;;;12.27;6.63;;;21.90;30.00;;;;;;5082066;28;20024;-70
2021/04/25 08:08:40;;;;;;;12.05;6.63;;;21.90;28.90;;;;;;5072448;28;20024;-71
2021/04/25 08:11:06;;;;;;;11.98;6.50;;;21.70;28.80;;;;;;5072725;28;20024;-75
2021/04/25 08:13:32;;;;;;;10.07;5.50;;;21.40;28.90;;;;;;5070167;28;20037;-71
2021/04/25 08:15:59;;;;;;;11.90;5.55;;;21.50;29.60;;;;;;5073111;28;20029;-70
2021/04/25 08:18:25;;;;;;;10.15;5.82;;;21.60;29.90;;;;;;5068889;28;20016;-71
2021/04/25 08:20:51;;;;;;;11.00;6.65;;;22.00;29.70;;;;;;5064586;28;20415;-69
2021/04/25 08:23:17;;;;;;;9.73;4.93;;;22.20;28.70;;;;;;5072029;28;20413;-73
2021/04/25 08:25:43;;;;;;;12.10;6.80;;;22.50;28.80;;;;;;5068536;28;20036;-72
2021/04/25 08:28:09;;;;;;;12.75;6.03;;;22.40;27.70;;;;;;5072283;28;20028;-74
2021/04/25 08:30:36;;;;;;;12.15;6.72;;;22.50;28.20;;;;;;5067669;28;20029;-73
2021/04/25 08:33:02;;;;;;;9.93;4.95;;;22.40;27.90;;;;;;5071056;28;20027;-73
2021/04/25 08:35:28;;;;;;;9.18;5.32;;;22.40;28.60;;;;;;5069340;28;20043;-73
2021/04/25 08:37:55;;;;;;;11.48;6.35;;;22.70;28.80;;;;;;5069127;28;20031;-73
2021/04/25 08:40:21;;;;;;;14.25;8.30;;;22.90;27.90;;;;;;5064163;28;20503;-73
2021/04/25 08:42:47;;;;;;;9.55;5.60;;;22.90;27.20;;;;;;5070629;28;20478;-72
2021/04/25 08:45:17;;;;;;;9.50;4.82;;;22.90;27.50;;;;;;5068518;28;20040;-73
2021/04/25 08:47:54;;;;;;;9.85;5.53;;;23.10;27.90;;;;;;5069502;28;20949;-72
2021/04/25 08:50:22;;;;;;;8.55;4.45;;;23.40;27.30;;;;;;5069641;28;20546;-72
2021/04/25 08:52:49;;;;;;;10.77;5.63;;;23.60;27.50;;;;;;5075638;28;20036;-72
2021/04/25 08:55:15;;;;;;;9.68;5.18;;;23.80;27.20;;;;;;5069556;28;20520;-73
2021/04/25 08:57:42;;;;;;;8.60;4.90;;;23.90;26.80;;;;;;5074803;28;20034;-73
2021/04/25 09:00:09;;;;;;;7.93;4.68;;;24.10;27.00;;;;;;5069086;28;20579;-73
2021/04/25 09:02:36;;;;;;;9.95;5.18;;;24.30;26.70;;;;;;5069267;28;20020;-73
2021/04/25 09:05:03;;;;;;;9.52;5.78;;;24.40;26.20;;;;;;5068616;28;20056;-72
2021/04/25 09:07:29;;;;;;;10.73;5.75;;;24.50;26.00;;;;;;5068938;28;20062;-73
2021/04/25 09:09:59;;;;;;;12.15;6.40;;;24.40;25.20;;;;;;5068896;28;20037;-73
2021/04/25 09:12:40;;;;;;;11.45;5.80;;;24.30;25.20;;;;;;5070362;28;20031;-73
2021/04/25 09:15:12;;;;;;;10.70;5.60;;;24.30;25.40;;;;;;5065698;28;20032;-73
2021/04/25 09:17:49;;;;;;;11.27;5.97;;;24.30;25.50;;;;;;5064691;28;20039;-73
2021/04/25 09:20:16;;;;;;;10.65;6.20;;;24.20;25.50;;;;;;5068834;28;20047;-68
2021/04/25 09:22:46;;;;;;;11.18;5.28;;;24.00;25.60;;;;;;5072744;28;20052;-68
2021/04/25 09:25:17;;;;;;;12.63;6.87;;;24.00;26.00;;;;;;5069107;28;20037;-69
2021/04/25 09:27:44;;;;;;;13.30;6.35;;;23.90;25.10;;;;;;5068179;28;20470;-68
2021/04/25 09:30:11;;;;;;;11.20;5.82;;;24.00;25.70;;;;;;5068131;28;20036;-68
2021/04/25 09:32:37;;;;;;;9.55;4.50;;;24.10;25.60;;;;;;5070412;28;20031;-68
2021/04/25 09:35:22;;;;;;;10.40;6.30;;;24.30;25.80;;;;;;5068849;28;20031;-68
2021/04/25 09:37:50;;;;;;;10.02;5.53;;;24.50;25.00;;;;;;5074679;28;20039;-68
2021/04/25 09:40:23;;;;;;;10.20;5.95;;;24.70;25.00;;;;;;5062794;28;20111;-69
2021/04/25 09:43:08;;;;;;;13.00;5.47;;;24.80;24.70;;;;;;5072382;28;20028;-68
2021/04/25 09:45:41;;;;;;;10.40;5.57;;;25.00;25.00;;;;;;5068421;28;20039;-69
2021/04/25 09:48:27;;;;;;;12.40;6.28;;;25.30;25.00;;;;;;5069251;28;20032;-68
2021/04/25 09:51:11;;;;;;;10.02;6.20;;;25.10;24.10;;;;;;5068475;28;20028;-68
2021/04/25 09:53:54;;;;;;;9.50;5.72;;;24.80;24.10;;;;;;5072352;28;20036;-68
2021/04/25 09:56:23;;;;;;;11.02;6.40;;;24.40;24.40;;;;;;5068336;28;20036;-68
2021/04/25 09:58:58;;;;;;;9.82;5.63;;;24.00;24.80;;;;;;5071986;28;20029;-68
2021/04/25 10:01:29;;;;;;;13.45;6.00;;;23.80;25.40;;;;;;5067560;28;20036;-68
2021/04/25 10:03:56;;;;;;;11.23;5.45;;;23.80;25.70;;;;;;5066704;28;20045;-68
2021/04/25 10:06:23;;;;;;;12.45;7.00;;;23.90;25.90;;;;;;5067192;28;20028;-68
2021/04/25 10:08:50;;;;;;;11.43;6.20;;;23.80;25.30;;;;;;5068227;28;20037;-68
2021/04/25 10:11:22;;;;;;;10.70;5.97;;;23.40;25.60;;;;;;5068206;28;20396;-68
2021/04/25 10:13:48;;;;;;;24.48;14.82;;;23.00;26.20;;;;;;5068126;28;20452;-68
2021/04/25 10:16:16;;;;;;;17.98;11.93;;;22.50;26.40;;;;;;5068054;28;20020;-68
2021/04/25 10:18:43;;;;;;;38.50;23.38;;;21.90;26.90;;;;;;5070943;28;20043;-68
2021/04/25 10:21:09;;;;;;;160.88;83.53;;;21.50;27.50;;;;;;5067790;28;20051;-67
2021/04/25 10:23:35;;;;;;;100.93;55.53;;;21.00;28.20;;;;;;5072758;28;20119;-68
2021/04/25 10:26:09;;;;;;;19.05;12.23;;;20.70;28.90;;;;;;5067908;28;20039;-68
2021/04/25 10:28:44;;;;;;;18.83;10.48;;;20.30;29.40;;;;;;5073176;28;20032;-68
2021/04/25 10:31:14;;;;;;;13.98;8.00;;;20.20;30.00;;;;;;5064321;28;20041;-68
2021/04/25 10:33:54;;;;;;;15.57;9.20;;;19.90;30.10;;;;;;5068952;28;20028;-68
2021/04/25 10:36:22;;;;;;;16.60;9.50;;;19.60;30.80;;;;;;5059094;28;20020;-68
2021/04/25 10:38:49;;;;;;;12.88;7.60;;;19.60;30.80;;;;;;5062611;28;20035;-68
2021/04/25 10:41:24;;;;;;;33.95;16.40;;;19.70;31.00;;;;;;5067878;28;20025;-68
2021/04/25 10:44:05;;;;;;;33.70;18.52;;;19.70;31.20;;;;;;5064905;28;20090;-67
2021/04/25 10:46:57;;;;;;;18.60;10.10;;;19.80;31.60;;;;;;5058741;28;20028;-68
2021/04/25 10:49:36;;;;;;;25.40;14.93;;;20.00;31.70;;;;;;5079688;28;20048;-68
2021/04/25 10:52:31;;;;;;;19.33;12.00;;;20.00;31.40;;;;;;5078501;28;20072;-64
2021/04/25 10:55:17;;;;;;;14.15;8.13;;;20.10;31.50;;;;;;5082942;28;20051;-69
2021/04/25 10:58:07;;;;;;;18.38;10.80;;;20.20;31.40;;;;;;5072556;28;20033;-69
2021/04/25 11:00:34;;;;;;;15.57;8.80;;;20.30;31.20;;;;;;5078874;28;20075;-70
2021/04/25 11:03:00;;;;;;;15.60;7.70;;;20.40;31.10;;;;;;5081193;28;20064;-70
2021/04/25 11:05:35;;;;;;;14.27;6.85;;;20.40;31.20;;;;;;5081160;28;20131;-69
2021/04/25 11:08:14;;;;;;;13.45;6.93;;;20.40;31.40;;;;;;5081558;28;20086;-69
2021/04/25 11:11:05;;;;;;;14.95;7.00;;;20.40;31.50;;;;;;5082554;28;20031;-69
2021/04/25 11:13:45;;;;;;;13.38;7.35;;;20.40;31.20;;;;;;5082376;28;20044;-63
2021/04/25 11:16:16;;;;;;;11.50;6.22;;;20.10;31.70;;;;;;5080953;28;20556;-66
2021/04/25 11:18:47;;;;;;;10.98;6.13;;;20.00;32.40;;;;;;5068398;28;20568;-66
2021/04/25 11:23:59;;;;;;;11.27;6.22;;;20.00;32.50;;;;;;5066448;28;20066;-65
2021/04/25 11:26:41;;;;;;;13.00;6.60;;;19.90;32.80;;;;;;5064133;28;20043;-66
2021/04/25 11:29:17;;;;;;;9.60;5.18;;;19.90;32.60;;;;;;5063848;28;20036;-66
2021/04/25 11:31:52;;;;;;;14.38;5.72;;;20.00;32.90;;;;;;5069569;28;20094;-67
2021/04/25 11:34:33;;;;;;;10.43;5.40;;;20.10;32.60;;;;;;5069354;28;20112;-66
2021/04/25 11:37:03;;;;;;;12.23;6.03;;;20.10;33.00;;;;;;5067232;28;20037;-65
2021/04/25 11:39:32;;;;;;;15.38;6.35;;;20.20;32.70;;;;;;5065278;28;20039;-65
2021/04/25 11:41:59;;;;;;;12.73;5.72;;;20.20;32.30;;;;;;5067776;28;20496;-65
2021/04/25 11:44:37;;;;;;;12.30;5.70;;;20.20;32.50;;;;;;5074008;28;20040;-65
2021/04/25 11:47:22;;;;;;;12.32;5.57;;;20.30;33.50;;;;;;5069059;28;20029;-65
2021/04/25 11:49:52;;;;;;;11.07;5.43;;;20.30;32.20;;;;;;5067170;28;20033;-65
2021/04/25 11:52:31;;;;;;;16.25;6.18;;;20.30;31.70;;;;;;5069271;28;20032;-65
2021/04/25 11:54:57;;;;;;;12.00;5.50;;;20.30;30.90;;;;;;5066348;28;20036;-65
2021/04/25 11:57:25;;;;;;;10.80;5.20;;;20.20;31.30;;;;;;5065929;28;20021;-67
2021/04/25 11:59:57;;;;;;;12.77;5.53;;;20.30;31.80;;;;;;5066493;28;20049;-66
2021/04/25 12:02:24;;;;;;;10.70;5.65;;;20.20;31.20;;;;;;5068015;28;20020;-66
2021/04/25 12:04:52;;;;;;;9.85;5.10;;;20.20;30.90;;;;;;5066602;28;20044;-66
2021/04/25 12:07:39;;;;;;;10.52;4.63;;;20.10;31.00;;;;;;5068208;28;20035;-66
2021/04/25 12:10:31;;;;;;;11.18;5.40;;;20.20;31.50;;;;;;5070975;28;20021;-65
2021/04/25 12:13:00;;;;;;;9.75;5.00;;;20.20;30.30;;;;;;5073314;28;20032;-66
2021/04/25 12:15:55;;;;;;;10.60;5.00;;;20.20;30.70;;;;;;5075890;28;20396;-66
2021/04/25 12:18:40;;;;;;;11.07;5.22;;;20.20;30.50;;;;;;5070286;28;20037;-66
2021/04/25 12:21:25;;;;;;;11.40;5.00;;;20.20;30.00;;;;;;5069992;28;20025;-66
2021/04/25 12:23:53;;;;;;;11.32;5.32;;;20.20;29.80;;;;;;5070663;28;20036;-66
2021/04/25 12:26:22;;;;;;;10.93;4.93;;;20.10;29.70;;;;;;5070454;28;20052;-66
2021/04/25 12:28:51;;;;;;;14.43;5.25;;;20.00;29.70;;;;;;5074554;28;20044;-66
2021/04/25 12:31:23;;;;;;;10.13;5.10;;;20.00;29.90;;;;;;5069917;28;20476;-66
2021/04/25 12:33:55;;;;;;;10.80;4.40;;;19.90;30.50;;;;;;5071017;28;20048;-66
2021/04/25 12:36:23;;;;;;;9.90;4.40;;;19.90;31.40;;;;;;5071535;28;20024;-66
2021/04/25 12:39:01;;;;;;;11.15;4.55;;;20.00;32.10;;;;;;5064370;28;20543;-66
2021/04/25 12:42:00;;;;;;;11.60;4.90;;;20.10;32.40;;;;;;5069712;28;20031;-66
2021/04/25 12:44:37;;;;;;;11.15;5.00;;;20.20;33.40;;;;;;5045343;28;20072;-65
2021/04/25 12:47:04;;;;;;;9.40;4.50;;;20.20;32.60;;;;;;5045879;28;20121;-66